createdAt,value
2019-06-10T00:00:02.420Z,16.40
2019-06-10T00:02:32.550Z,16.40
2019-06-10T00:05:03.725Z,16.40
2019-06-10T00:07:34.674Z,16.30
2019-06-10T00:10:06.182Z,16.30
2019-06-10T00:12:36.678Z,16.30
2019-06-10T00:15:10.965Z,16.30
2019-06-10T00:17:54.811Z,16.30
2019-06-10T00:20:17.314Z,16.30
2019-06-10T00:22:46.986Z,16.30
2019-06-10T00:25:15.536Z,16.30
2019-06-10T00:27:44.066Z,16.20
2019-06-10T00:30:13.424Z,16.20
2019-06-10T00:32:42.998Z,16.20
2019-06-10T00:35:12.432Z,16.20
2019-06-10T00:37:41.968Z,16.20
2019-06-10T00:40:14.058Z,16.10
2019-06-10T00:42:41.811Z,16.10
2019-06-10T00:45:17.998Z,16.10
2019-06-10T00:47:52.082Z,16.10
2019-06-10T00:50:18.166Z,16.10
2019-06-10T00:52:51.673Z,16.00
2019-06-10T00:55:21.204Z,16.00
2019-06-10T00:57:55.293Z,15.90
2019-06-10T01:00:31.728Z,15.90
2019-06-10T01:03:02.408Z,15.90
2019-06-10T01:05:31.346Z,15.90
2019-06-10T01:08:02.937Z,15.90
2019-06-10T01:10:36.398Z,15.90
2019-06-10T01:13:07.051Z,15.90
2019-06-10T01:15:36.889Z,15.90
2019-06-10T01:18:05.579Z,15.90
2019-06-10T01:20:34.693Z,15.90
2019-06-10T01:23:05.026Z,15.90
2019-06-10T01:25:34.564Z,15.90
2019-06-10T01:28:03.376Z,15.80
2019-06-10T01:30:34.580Z,15.80
2019-06-10T01:33:04.473Z,15.80
2019-06-10T01:35:34.226Z,15.70
2019-06-10T01:38:03.698Z,15.70
2019-06-10T01:40:32.176Z,15.70
2019-06-10T01:43:03.190Z,15.70
2019-06-10T01:45:31.776Z,15.70
2019-06-10T01:48:07.182Z,15.60
2019-06-10T01:50:35.737Z,15.60
2019-06-10T01:53:04.330Z,15.50
2019-06-10T01:55:34.878Z,15.50
2019-06-10T01:58:03.337Z,15.40
2019-06-10T02:00:33.555Z,15.40
2019-06-10T02:03:03.678Z,15.30
2019-06-10T02:05:41.850Z,15.30
2019-06-10T02:08:10.894Z,15.20
2019-06-10T02:10:41.381Z,15.10
2019-06-10T02:13:22.094Z,15.10
2019-06-10T02:15:51.367Z,15.00
2019-06-10T02:18:22.425Z,15.00
2019-06-10T02:20:56.355Z,14.90
2019-06-10T02:23:24.949Z,14.80
2019-06-10T02:25:56.251Z,14.80
2019-06-10T02:28:24.815Z,14.70
2019-06-10T02:31:04.018Z,14.70
2019-06-10T02:33:36.599Z,14.60
2019-06-10T02:36:05.512Z,14.60
2019-06-10T02:38:39.347Z,14.50
2019-06-10T02:41:05.534Z,14.50
2019-06-10T02:43:37.354Z,14.50
2019-06-10T02:46:08.662Z,14.40
2019-06-10T02:48:43.405Z,14.30
2019-06-10T02:51:08.959Z,14.30
2019-06-10T02:53:43.524Z,14.20
2019-06-10T02:56:12.663Z,14.20
2019-06-10T02:58:44.970Z,14.20
2019-06-10T03:01:17.370Z,14.10
2019-06-10T03:03:49.743Z,14.10
2019-06-10T03:06:18.661Z,14.10
2019-06-10T03:08:46.660Z,14.10
2019-06-10T03:11:16.595Z,14.10
2019-06-10T03:13:47.953Z,14.00
2019-06-10T03:16:23.068Z,14.00
2019-06-10T03:18:52.542Z,14.00
2019-06-10T03:21:25.975Z,14.00
2019-06-10T03:23:56.339Z,13.90
2019-06-10T03:26:25.692Z,13.90
2019-06-10T03:28:55.605Z,13.90
2019-06-10T03:31:33.427Z,13.90
2019-06-10T03:33:57.201Z,13.90
2019-06-10T03:36:27.298Z,13.90
2019-06-10T03:38:57.434Z,13.80
2019-06-10T03:41:32.356Z,13.80
2019-06-10T03:44:05.780Z,13.80
2019-06-10T03:46:34.278Z,13.80
2019-06-10T03:49:07.650Z,13.80
2019-06-10T03:51:39.159Z,13.80
2019-06-10T03:54:08.023Z,13.80
2019-06-10T03:56:39.023Z,13.80
2019-06-10T03:59:07.635Z,13.80
2019-06-10T04:01:42.584Z,13.80
2019-06-10T04:04:13.013Z,13.70
2019-06-10T04:06:44.300Z,13.70
2019-06-10T04:09:14.392Z,13.70
2019-06-10T04:11:44.929Z,13.70
2019-06-10T04:14:13.763Z,13.70
2019-06-10T04:16:43.880Z,13.80
2019-06-10T04:19:13.212Z,13.80
2019-06-10T04:21:43.282Z,13.90
2019-06-10T04:24:12.929Z,13.90
2019-06-10T04:26:43.658Z,14.00
2019-06-10T04:29:12.886Z,14.10
2019-06-10T04:31:43.304Z,14.10
2019-06-10T04:34:18.253Z,14.20
2019-06-10T04:36:48.367Z,14.20
2019-06-10T04:39:20.484Z,14.20
2019-06-10T04:41:49.676Z,14.20
2019-06-10T04:44:20.569Z,14.30
2019-06-10T04:46:52.079Z,14.30
2019-06-10T04:49:23.411Z,14.30
2019-06-10T04:51:53.044Z,14.40
2019-06-10T04:54:23.787Z,14.50
2019-06-10T04:56:53.810Z,14.50
2019-06-10T04:59:27.123Z,14.50
2019-06-10T05:01:55.746Z,14.50
2019-06-10T05:04:26.540Z,14.50
2019-06-10T05:06:57.488Z,14.50
2019-06-10T05:09:31.156Z,14.60
2019-06-10T05:12:02.713Z,14.70
2019-06-10T05:14:33.499Z,14.80
2019-06-10T05:17:02.793Z,14.80
2019-06-10T05:19:35.631Z,14.80
2019-06-10T05:22:09.284Z,14.80
2019-06-10T05:24:37.944Z,14.90
2019-06-10T05:27:09.761Z,14.90
2019-06-10T05:29:42.088Z,14.90
2019-06-10T05:32:14.752Z,14.90
2019-06-10T05:34:47.586Z,14.90
2019-06-10T05:37:16.063Z,14.90
2019-06-10T05:39:44.602Z,15.00
2019-06-10T05:42:14.833Z,15.00
2019-06-10T05:44:44.838Z,15.20
2019-06-10T05:47:14.474Z,15.20
2019-06-10T05:49:43.291Z,15.30
2019-06-10T05:52:14.901Z,15.30
2019-06-10T05:54:43.499Z,15.30
2019-06-10T05:57:13.524Z,15.40
2019-06-10T05:59:44.845Z,15.40
2019-06-10T06:02:16.461Z,15.50
2019-06-10T06:04:45.103Z,15.60
2019-06-10T06:07:16.466Z,15.70
2019-06-10T06:09:46.085Z,15.80
2019-06-10T06:12:16.133Z,15.90
2019-06-10T06:14:45.422Z,16.00
2019-06-10T06:17:16.634Z,16.10
2019-06-10T06:19:45.699Z,16.30
2019-06-10T06:22:16.431Z,16.40
2019-06-10T06:24:47.829Z,16.50
2019-06-10T06:27:16.299Z,16.50
2019-06-10T06:29:47.805Z,16.50
2019-06-10T06:32:26.262Z,16.50
2019-06-10T06:34:56.525Z,16.40
2019-06-10T06:37:28.947Z,16.40
2019-06-10T06:39:58.624Z,16.40
2019-06-10T06:42:29.394Z,16.50
2019-06-10T06:44:59.575Z,16.60
2019-06-10T06:47:29.835Z,16.70
2019-06-10T06:50:02.708Z,16.80
2019-06-10T06:52:55.527Z,17.00
2019-06-10T06:55:03.347Z,17.10
2019-06-10T06:57:34.209Z,17.20
2019-06-10T07:00:34.136Z,17.30
2019-06-10T07:02:40.285Z,17.30
2019-06-10T07:05:12.499Z,17.30
2019-06-10T07:07:41.108Z,17.30
2019-06-10T07:10:12.271Z,17.40
2019-06-10T07:12:43.820Z,17.70
2019-06-10T07:15:14.853Z,17.80
2019-06-10T07:17:45.679Z,17.90
2019-06-10T07:20:13.955Z,18.20
2019-06-10T07:22:46.256Z,18.40
2019-06-10T07:25:13.468Z,18.60
2019-06-10T07:28:03.722Z,18.70
2019-06-10T07:30:16.224Z,18.70
2019-06-10T07:32:47.614Z,18.50
2019-06-10T07:35:16.494Z,18.40
2019-06-10T07:37:46.051Z,18.40
2019-06-10T07:40:14.832Z,18.40
2019-06-10T07:42:46.297Z,18.40
2019-06-10T07:45:17.786Z,18.60
2019-06-10T07:47:47.884Z,18.90
2019-06-10T07:50:16.741Z,18.90
2019-06-10T07:52:46.855Z,18.90
2019-06-10T07:55:17.269Z,18.80
2019-06-10T07:57:47.956Z,18.80
2019-06-10T08:00:16.956Z,18.80
2019-06-10T08:02:46.179Z,18.80
2019-06-10T08:05:17.864Z,18.80
2019-06-10T08:07:49.234Z,18.90
2019-06-10T08:10:18.730Z,18.90
2019-06-10T08:12:48.433Z,19.00
2019-06-10T08:15:17.411Z,19.10
2019-06-10T08:17:48.967Z,19.10
2019-06-10T08:20:24.018Z,19.20
2019-06-10T08:22:55.166Z,19.20
2019-06-10T08:25:24.152Z,19.20
2019-06-10T08:27:53.879Z,19.10
2019-06-10T08:30:27.391Z,19.10
2019-06-10T08:32:56.544Z,19.10
2019-06-10T08:35:37.940Z,19.10
2019-06-10T08:37:57.858Z,19.20
2019-06-10T08:40:26.514Z,19.30
2019-06-10T08:43:00.371Z,19.40
2019-06-10T08:45:27.201Z,19.50
2019-06-10T08:47:57.005Z,19.50
2019-06-10T08:50:25.504Z,19.70
2019-06-10T08:53:12.791Z,19.80
2019-06-10T08:55:26.559Z,19.80
2019-06-10T08:57:59.212Z,19.80
2019-06-10T09:00:33.131Z,19.90
2019-06-10T09:03:09.458Z,19.90
2019-06-10T09:05:41.948Z,20.00
2019-06-10T09:08:13.029Z,20.10
2019-06-10T09:10:45.619Z,20.30
2019-06-10T09:13:13.768Z,20.40
2019-06-10T09:15:45.006Z,20.40
2019-06-10T09:18:14.968Z,20.40
2019-06-10T09:20:50.995Z,20.40
2019-06-10T09:23:23.151Z,20.30
2019-06-10T09:25:56.945Z,20.10
2019-06-10T09:28:25.634Z,20.00
2019-06-10T09:30:59.396Z,19.90
2019-06-10T09:33:24.617Z,19.80
2019-06-10T09:36:03.095Z,19.80
2019-06-10T09:38:35.612Z,19.80
2019-06-10T09:41:08.413Z,19.80
2019-06-10T09:43:38.359Z,19.70
2019-06-10T09:46:23.111Z,19.60
2019-06-10T09:48:46.954Z,19.60
2019-06-10T09:51:13.715Z,19.60
2019-06-10T09:53:56.190Z,19.70
2019-06-10T09:56:19.433Z,19.70
2019-06-10T09:58:52.156Z,19.80
2019-06-10T10:01:20.385Z,19.90
2019-06-10T10:03:53.909Z,19.90
2019-06-10T10:06:24.391Z,19.90
2019-06-10T10:08:58.193Z,20.00
2019-06-10T10:11:28.890Z,20.00
2019-06-10T10:13:57.343Z,20.00
2019-06-10T10:16:29.770Z,20.10
2019-06-10T10:19:05.308Z,20.10
2019-06-10T10:21:31.582Z,20.10
2019-06-10T10:24:09.868Z,20.20
2019-06-10T10:26:32.667Z,20.20
2019-06-10T10:29:05.785Z,20.10
2019-06-10T10:31:36.827Z,20.10
2019-06-10T10:34:05.557Z,20.20
2019-06-10T10:36:34.344Z,20.20
2019-06-10T10:39:03.376Z,20.30
2019-06-10T10:41:34.657Z,20.60
2019-06-10T10:44:03.891Z,20.80
2019-06-10T10:46:35.323Z,21.00
2019-06-10T10:49:03.881Z,21.20
2019-06-10T10:51:35.570Z,21.30
2019-06-10T10:54:32.148Z,21.50
2019-06-10T10:56:39.054Z,21.80
2019-06-10T10:59:22.102Z,22.10
2019-06-10T11:01:51.634Z,22.60
2019-06-10T11:04:24.052Z,22.90
2019-06-10T11:07:00.415Z,23.00
2019-06-10T11:09:27.141Z,23.10
2019-06-10T11:11:59.395Z,23.30
2019-06-10T11:14:34.016Z,23.50
2019-06-10T11:17:04.452Z,23.70
2019-06-10T11:19:33.155Z,24.00
2019-06-10T11:22:05.838Z,24.40
2019-06-10T11:24:44.904Z,24.90
2019-06-10T11:27:16.495Z,25.10
2019-06-10T11:29:46.150Z,25.10
2019-06-10T11:32:20.396Z,25.10
2019-06-10T11:34:57.038Z,25.10
2019-06-10T11:37:28.652Z,25.20
2019-06-10T11:39:57.550Z,25.30
2019-06-10T11:42:33.534Z,25.50
2019-06-10T11:45:10.388Z,25.80
2019-06-10T11:47:38.686Z,26.00
2019-06-10T11:50:13.576Z,26.20
2019-06-10T11:52:44.986Z,26.30
2019-06-10T11:55:18.943Z,26.30
2019-06-10T11:57:49.899Z,26.40
2019-06-10T12:02:53.716Z,26.70
2019-06-10T12:05:23.617Z,27.10
2019-06-10T12:08:01.241Z,27.00
2019-06-10T12:10:27.939Z,26.60
2019-06-10T12:13:15.849Z,26.20
2019-06-10T12:16:25.575Z,26.30
2019-06-10T12:18:18.969Z,26.60
2019-06-10T12:20:47.467Z,27.10
2019-06-10T12:23:21.980Z,27.40
2019-06-10T12:25:49.693Z,27.30
2019-06-10T12:28:22.566Z,27.20
2019-06-10T12:30:57.660Z,27.10
2019-06-10T12:33:25.383Z,26.80
2019-06-10T12:35:58.134Z,26.50
2019-06-10T12:38:25.862Z,26.30
2019-06-10T12:40:58.487Z,26.10
2019-06-10T12:43:27.904Z,26.00
2019-06-10T12:45:58.847Z,25.90
2019-06-10T12:48:28.090Z,25.90
2019-06-10T12:51:05.809Z,26.10
2019-06-10T12:53:32.564Z,26.70
2019-06-10T12:56:07.941Z,27.00
2019-06-10T12:58:33.412Z,26.90
2019-06-10T13:01:05.969Z,26.70
2019-06-10T13:03:34.621Z,26.80
2019-06-10T13:06:07.199Z,26.80
2019-06-10T13:08:35.283Z,26.90
2019-06-10T13:11:04.335Z,27.00
2019-06-10T13:13:33.394Z,26.80
2019-06-10T13:16:06.697Z,26.50
2019-06-10T13:18:33.854Z,26.20
2019-06-10T13:21:08.509Z,25.90
2019-06-10T13:23:35.387Z,25.80
2019-06-10T13:26:10.178Z,25.80
2019-06-10T13:28:33.663Z,25.80
2019-06-10T13:31:06.564Z,25.80
2019-06-10T13:33:34.190Z,25.90
2019-06-10T13:36:06.408Z,25.80
2019-06-10T13:38:33.345Z,25.70
2019-06-10T13:41:05.819Z,25.60
2019-06-10T13:43:37.416Z,25.30
2019-06-10T13:46:10.478Z,25.20
2019-06-10T13:48:38.284Z,25.10
2019-06-10T13:51:10.973Z,24.90
2019-06-10T13:53:38.894Z,24.60
2019-06-10T13:56:30.019Z,24.40
2019-06-10T13:58:45.992Z,24.30
2019-06-10T14:01:20.756Z,24.30
2019-06-10T14:03:43.268Z,24.30
2019-06-10T14:06:32.047Z,24.30
2019-06-10T14:08:43.211Z,24.20
2019-06-10T14:11:13.440Z,24.30
2019-06-10T14:13:45.177Z,24.20
2019-06-10T14:16:15.079Z,24.20
2019-06-10T14:18:45.286Z,24.00
2019-06-10T14:21:18.362Z,24.00
2019-06-10T14:23:48.920Z,24.00
2019-06-10T14:26:31.215Z,23.80
2019-06-10T14:28:52.557Z,23.80
2019-06-10T14:31:38.236Z,23.70
2019-06-10T14:33:57.241Z,23.70
2019-06-10T14:36:27.417Z,23.70
2019-06-10T14:38:55.891Z,23.60
2019-06-10T14:41:28.677Z,23.50
2019-06-10T14:44:04.455Z,23.40
2019-06-10T14:46:36.237Z,23.40
2019-06-10T14:49:06.885Z,23.20
2019-06-10T14:51:35.385Z,23.20
2019-06-10T14:54:05.154Z,23.10
2019-06-10T14:56:49.681Z,23.00
2019-06-10T14:59:09.472Z,22.80
2019-06-10T15:01:38.153Z,22.70
2019-06-10T15:04:07.999Z,22.60
2019-06-10T15:06:38.222Z,22.50
2019-06-10T15:09:09.388Z,22.50
2019-06-10T15:11:42.780Z,22.30
2019-06-10T15:14:20.331Z,22.20
2019-06-10T15:16:53.472Z,21.90
2019-06-10T15:19:28.695Z,21.70
2019-06-10T15:21:55.368Z,21.60
2019-06-10T15:24:24.371Z,21.50
2019-06-10T15:27:09.110Z,21.40
2019-06-10T15:30:12.237Z,21.20
2019-06-10T15:32:37.164Z,21.00
2019-06-10T15:35:08.632Z,20.80
2019-06-10T15:37:38.446Z,20.70
2019-06-10T15:40:09.086Z,20.70
2019-06-10T15:42:37.869Z,20.70
2019-06-10T15:45:07.514Z,20.60
2019-06-10T15:47:37.064Z,20.60
2019-06-10T15:50:06.040Z,20.60
2019-06-10T15:52:36.134Z,20.70
2019-06-10T15:55:18.121Z,20.60
2019-06-10T15:57:46.073Z,20.60
2019-06-10T16:00:18.591Z,20.60
2019-06-10T16:02:43.282Z,20.60
2019-06-10T16:05:14.404Z,20.60
2019-06-10T16:07:42.520Z,20.60
2019-06-10T16:10:12.837Z,20.50
2019-06-10T16:12:45.204Z,20.50
2019-06-10T16:15:18.167Z,20.50
2019-06-10T16:17:47.467Z,20.50
2019-06-10T16:20:19.875Z,20.50
2019-06-10T16:22:52.199Z,20.50
2019-06-10T16:25:20.474Z,20.40
2019-06-10T16:27:55.520Z,20.40
2019-06-10T16:30:25.940Z,20.40
2019-06-10T16:32:55.938Z,20.30
2019-06-10T16:35:26.906Z,20.30
2019-06-10T16:37:56.837Z,20.20
2019-06-10T16:40:28.519Z,20.30
2019-06-10T16:42:57.278Z,20.20
2019-06-10T16:45:30.295Z,20.20
2019-06-10T16:47:56.097Z,20.10
2019-06-10T16:50:27.302Z,20.10
2019-06-10T16:52:54.872Z,20.10
2019-06-10T16:55:25.324Z,20.10
2019-06-10T16:57:59.404Z,20.00
2019-06-10T17:00:26.363Z,20.00
2019-06-10T17:02:57.189Z,20.00
2019-06-10T17:05:27.610Z,20.10
2019-06-10T17:07:58.663Z,20.10
2019-06-10T17:10:29.464Z,20.10
2019-06-10T17:13:03.528Z,20.10
2019-06-10T17:15:33.606Z,20.10
2019-06-10T17:18:05.276Z,20.10
2019-06-10T17:20:34.281Z,20.00
2019-06-10T17:23:24.622Z,19.90
2019-06-10T17:25:54.189Z,19.80
2019-06-10T17:28:27.131Z,19.80
2019-06-10T17:30:57.218Z,19.70
2019-06-10T17:33:30.371Z,19.70
2019-06-10T17:35:59.127Z,19.70
2019-06-10T17:38:28.893Z,19.50
2019-06-10T17:40:59.131Z,19.50
2019-06-10T17:43:29.705Z,19.50
2019-06-10T17:45:58.190Z,19.40
2019-06-10T17:48:29.245Z,19.40
2019-06-10T17:50:58.897Z,19.40
2019-06-10T17:53:28.199Z,19.40
2019-06-10T17:55:57.792Z,19.30
2019-06-10T17:58:39.322Z,19.30
2019-06-10T18:00:58.220Z,19.30
2019-06-10T18:03:31.360Z,19.30
2019-06-10T18:06:02.605Z,19.20
2019-06-10T18:08:42.447Z,19.20
2019-06-10T18:11:12.682Z,19.10
2019-06-10T18:14:52.573Z,18.90
2019-06-10T18:17:23.425Z,19.00
2019-06-10T18:19:53.368Z,18.80
2019-06-10T18:22:24.995Z,18.70
2019-06-10T18:24:54.544Z,18.50
2019-06-10T18:27:26.932Z,18.40
2019-06-10T18:29:55.839Z,18.40
2019-06-10T18:32:27.456Z,18.30
2019-06-10T18:34:56.049Z,18.30
2019-06-10T18:37:24.625Z,18.30
2019-06-10T18:39:54.867Z,18.20
2019-06-10T18:42:24.421Z,18.10
2019-06-10T18:44:53.062Z,18.10
2019-06-10T18:47:22.393Z,18.00
2019-06-10T18:49:52.760Z,18.00
2019-06-10T18:52:24.109Z,17.90
2019-06-10T18:54:52.920Z,17.80
2019-06-10T18:57:22.441Z,17.80
2019-06-10T18:59:58.076Z,17.80
2019-06-10T19:02:30.117Z,17.70
2019-06-10T19:05:08.483Z,17.70
2019-06-10T19:07:33.837Z,17.60
2019-06-10T19:10:08.001Z,17.50
2019-06-10T19:12:39.457Z,17.40
2019-06-10T19:15:12.008Z,17.30
2019-06-10T19:17:44.702Z,17.20
2019-06-10T19:20:16.307Z,17.20
2019-06-10T19:22:46.675Z,17.10
2019-06-10T19:25:15.832Z,17.10
2019-06-10T19:27:44.524Z,17.00
2019-06-10T19:30:14.865Z,17.00
2019-06-10T19:32:44.678Z,17.00
2019-06-10T19:35:15.908Z,16.90
2019-06-10T19:37:44.803Z,16.90
2019-06-10T19:40:14.191Z,16.90
2019-06-10T19:42:44.778Z,16.80
2019-06-10T19:45:15.573Z,16.80
2019-06-10T19:47:45.975Z,16.70
2019-06-10T19:50:15.982Z,16.70
2019-06-10T19:52:45.508Z,16.60
2019-06-10T19:55:23.426Z,16.60
2019-06-10T19:57:57.502Z,16.60
2019-06-10T20:00:26.014Z,16.60
2019-06-10T20:02:56.176Z,16.50
2019-06-10T20:05:24.664Z,16.50
2019-06-10T20:07:59.732Z,16.40
2019-06-10T20:10:32.211Z,16.40
2019-06-10T20:13:08.312Z,16.40
2019-06-10T20:15:39.607Z,16.40
2019-06-10T20:18:08.195Z,16.30
2019-06-10T20:20:40.120Z,16.30
2019-06-10T20:23:13.808Z,16.30
2019-06-10T20:25:48.737Z,16.30
2019-06-10T20:28:22.377Z,16.30
2019-06-10T20:30:53.382Z,16.30
2019-06-10T20:33:36.554Z,16.30
2019-06-10T20:36:08.081Z,16.20
2019-06-10T20:38:46.414Z,16.20
2019-06-10T20:41:14.394Z,16.20
2019-06-10T20:43:55.583Z,16.20
2019-06-10T20:46:25.752Z,16.20
2019-06-10T20:48:55.867Z,16.10
2019-06-10T20:51:27.188Z,16.10
2019-06-10T20:53:57.202Z,16.10
2019-06-10T20:56:25.747Z,16.10
2019-06-10T20:58:54.247Z,16.10
2019-06-10T21:01:25.160Z,16.10
2019-06-10T21:03:54.334Z,16.00
2019-06-10T21:06:24.285Z,16.00
2019-06-10T21:08:58.700Z,16.00
2019-06-10T21:11:32.118Z,16.00
2019-06-10T21:14:05.781Z,16.00
2019-06-10T21:16:42.212Z,16.00
2019-06-10T21:19:10.777Z,16.00
2019-06-10T21:21:45.092Z,16.10
2019-06-10T21:24:13.657Z,16.10
2019-06-10T21:26:46.647Z,16.10
2019-06-10T21:29:19.462Z,16.10
2019-06-10T21:31:54.905Z,16.10
2019-06-10T21:34:24.954Z,16.00
2019-06-10T21:36:55.118Z,16.00
2019-06-10T21:39:24.033Z,16.00
2019-06-10T21:41:54.828Z,16.00
2019-06-10T21:44:28.839Z,16.00
2019-06-10T21:46:57.385Z,16.00
2019-06-10T21:49:25.998Z,16.00
2019-06-10T21:51:57.073Z,15.90
2019-06-10T21:54:27.826Z,15.90
2019-06-10T21:56:57.694Z,15.80
2019-06-10T21:59:27.389Z,15.80
2019-06-10T22:01:55.925Z,15.80
2019-06-10T22:04:25.951Z,15.80
2019-06-10T22:06:55.943Z,15.70
2019-06-10T22:09:24.708Z,15.70
2019-06-10T22:12:02.710Z,15.70
2019-06-10T22:14:32.854Z,15.70
2019-06-10T22:17:02.964Z,15.70
2019-06-10T22:19:35.436Z,15.70
2019-06-10T22:22:03.994Z,15.60
2019-06-10T22:24:36.194Z,15.60
2019-06-10T22:27:06.735Z,15.70
2019-06-10T22:29:35.211Z,15.70
2019-06-10T22:32:08.494Z,15.70
2019-06-10T22:34:37.282Z,15.80
2019-06-10T22:37:05.782Z,15.80
2019-06-10T22:39:34.343Z,15.80
2019-06-10T22:42:05.488Z,15.80
2019-06-10T22:44:33.994Z,15.80
2019-06-10T22:47:03.510Z,15.90
2019-06-10T22:49:33.723Z,15.90
2019-06-10T22:52:03.443Z,15.90
2019-06-10T22:54:32.459Z,16.00
2019-06-10T22:57:03.880Z,15.90
2019-06-10T22:59:32.540Z,15.90
2019-06-10T23:02:03.087Z,15.90
2019-06-10T23:04:35.039Z,15.90
2019-06-10T23:07:05.833Z,15.90
2019-06-10T23:09:35.868Z,15.90
2019-06-10T23:12:04.362Z,15.90
2019-06-10T23:14:34.892Z,15.90
2019-06-10T23:17:04.774Z,15.90
2019-06-10T23:19:34.690Z,15.90
2019-06-10T23:22:03.273Z,15.90
2019-06-10T23:24:32.305Z,15.90
2019-06-10T23:27:03.200Z,16.00
2019-06-10T23:29:34.955Z,15.90
2019-06-10T23:32:07.241Z,15.90
2019-06-10T23:34:36.306Z,15.90
2019-06-10T23:37:04.923Z,15.90
2019-06-10T23:39:34.630Z,15.90
2019-06-10T23:42:04.666Z,15.80
2019-06-10T23:44:33.647Z,15.80
2019-06-10T23:47:04.228Z,15.80
2019-06-10T23:49:32.901Z,15.80
2019-06-10T23:52:04.679Z,15.80
2019-06-10T23:54:32.855Z,15.80
2019-06-10T23:57:05.565Z,15.80
2019-06-10T23:59:36.766Z,15.80
